Nykobing, Denmark
Current Conditions -  °F | °C
As of 4:50 AM on Sunday 23 Nov 2014 (Local Time) from EKRK Reporting Station
Broken Clouds Broken Clouds  
Wind Chill:   Ceiling: 2200
Heat Index:   Visibility: 6mi
Dew Point:   Wind: 16mph
Humidity: 87%   Direction: 140°SE
Pressure: 30.21"   Gusts: NA
Location:  55.94°N, 11.65°E
Report Text: EKRK 230350Z AUTO 14014KT 9999NDV FEW017/// BKN022///BKN055/// 06/04 Q1023
Loading
Personal Weather Stations






























Interactive Weather Map New forecast layout! Learn more

10-Day Weather Forecast

Advertisements
Track Severe Weather on mobile